Terminal Aerodrome Forecast
Issued by NWS Sioux Falls, SD

Home | Current Version | Previous Version | Text Only | Print | Product List | Glossary On
Versions: 1 2 3 4 5 6 7 8 9 10 11 12 13 14 15 16 17 18 19 20 21 22 23 24
000
FTUS43 KFSD 222212 AAA
TAFHON
TAF AMD
KHON 222212Z 2222/2318 33008KT 5SM -SN OVC008
      TEMPO 2222/2302 2SM -SN
     FM230200 35010KT 3SM -SN BR OVC008
     FM230800 34014KT 3SM -SN OVC007=

USA.gov is the U.S. government's official web portal to all federal, state and local government web resources and services.